createdAt,value
2019-01-18T00:01:16.454Z,3.23
2019-01-18T00:03:45.934Z,4.53
2019-01-18T00:06:15.573Z,3.90
2019-01-18T00:08:45.038Z,4.07
2019-01-18T00:11:14.058Z,3.40
2019-01-18T00:13:43.288Z,3.53
2019-01-18T00:16:12.800Z,3.37
2019-01-18T00:18:42.224Z,3.60
2019-01-18T00:21:11.814Z,3.63
2019-01-18T00:23:40.864Z,3.33
2019-01-18T00:26:10.238Z,3.73
2019-01-18T00:28:39.568Z,3.80
2019-01-18T00:31:09.536Z,3.70
2019-01-18T00:33:38.598Z,3.67
2019-01-18T00:36:09.295Z,4.00
2019-01-18T00:38:38.385Z,3.87
2019-01-18T00:41:08.829Z,3.63
2019-01-18T00:43:37.812Z,3.80
2019-01-18T00:46:06.981Z,4.03
2019-01-18T00:48:36.058Z,3.40
2019-01-18T00:51:05.398Z,3.80
2019-01-18T00:53:34.790Z,3.50
2019-01-18T00:56:03.849Z,3.57
2019-01-18T00:58:33.102Z,3.53
2019-01-18T01:01:02.403Z,3.27
2019-01-18T01:03:31.777Z,3.83
2019-01-18T01:06:00.873Z,4.23
2019-01-18T01:08:29.954Z,3.43
2019-01-18T01:10:59.032Z,3.60
2019-01-18T01:13:28.100Z,4.17
2019-01-18T01:15:57.442Z,3.57
2019-01-18T01:18:27.221Z,4.07
2019-01-18T01:20:56.757Z,4.30
2019-01-18T01:23:25.776Z,4.27
2019-01-18T01:25:54.772Z,3.60
2019-01-18T01:28:24.208Z,3.27
2019-01-18T01:30:53.206Z,3.57
2019-01-18T01:33:23.220Z,3.80
2019-01-18T01:35:52.576Z,3.80
2019-01-18T01:38:22.199Z,3.37
2019-01-18T01:40:52.340Z,4.07
2019-01-18T01:43:22.335Z,3.93
2019-01-18T01:45:51.332Z,3.80
2019-01-18T01:48:20.898Z,3.60
2019-01-18T01:50:50.934Z,3.50
2019-01-18T01:53:19.964Z,4.07
2019-01-18T01:55:49.057Z,3.50
2019-01-18T01:58:18.409Z,3.50
2019-01-18T02:00:47.423Z,3.37
2019-01-18T02:03:17.010Z,3.80
2019-01-18T02:05:46.252Z,3.77
2019-01-18T02:08:15.266Z,3.40
2019-01-18T02:10:44.377Z,4.23
2019-01-18T02:13:13.919Z,3.97
2019-01-18T02:15:43.301Z,3.60
2019-01-18T02:18:12.700Z,4.37
2019-01-18T02:20:41.819Z,4.07
2019-01-18T02:23:10.842Z,3.93
2019-01-18T02:25:40.188Z,4.53
2019-01-18T02:28:09.585Z,5.27
2019-01-18T02:49:37.060Z,4.40
2019-01-18T02:52:06.944Z,4.43
2019-01-18T02:54:36.015Z,4.80
2019-01-18T02:57:05.685Z,4.20
2019-01-18T02:59:35.003Z,4.50
2019-01-18T03:02:05.090Z,4.30
2019-01-18T03:04:34.099Z,4.43
2019-01-18T03:07:04.116Z,4.67
2019-01-18T03:09:33.110Z,4.17
2019-01-18T03:12:02.102Z,4.57
2019-01-18T03:14:31.428Z,4.80
2019-01-18T03:17:00.506Z,5.07
2019-01-18T03:19:31.668Z,4.30
2019-01-18T03:22:00.620Z,4.53
2019-01-18T03:24:30.218Z,4.60
2019-01-18T03:26:59.240Z,4.47
2019-01-18T03:29:28.288Z,4.67
2019-01-18T03:31:57.358Z,4.90
2019-01-18T03:34:26.394Z,4.40
2019-01-18T03:36:55.628Z,5.00
2019-01-18T03:39:25.641Z,5.30
2019-01-18T03:41:54.660Z,5.03
2019-01-18T03:44:24.541Z,4.80
2019-01-18T03:46:53.554Z,5.00
2019-01-18T03:49:23.346Z,4.90
2019-01-18T03:51:52.665Z,5.10
2019-01-18T03:54:22.955Z,4.97
2019-01-18T03:56:52.011Z,5.50
2019-01-18T03:59:21.383Z,5.23
2019-01-18T04:01:50.706Z,5.03
2019-01-18T04:04:19.824Z,5.27
2019-01-18T04:06:49.251Z,5.47
2019-01-18T04:09:18.268Z,4.77
2019-01-18T04:11:47.345Z,5.60
2019-01-18T04:14:16.386Z,4.70
2019-01-18T04:16:46.946Z,5.03
2019-01-18T04:19:15.998Z,4.70
2019-01-18T04:21:45.370Z,5.00
2019-01-18T04:24:14.698Z,5.53
2019-01-18T04:26:44.340Z,4.97
2019-01-18T04:29:14.310Z,5.07
2019-01-18T04:31:43.466Z,5.70
2019-01-18T04:34:12.865Z,5.47
2019-01-18T04:36:42.037Z,5.47
2019-01-18T04:39:11.132Z,5.10
2019-01-18T04:41:40.506Z,4.83
2019-01-18T04:44:10.234Z,4.63
2019-01-18T04:46:39.548Z,4.37
2019-01-18T04:49:08.770Z,5.47
2019-01-18T04:51:37.761Z,5.27
2019-01-18T04:54:10.848Z,5.07
2019-01-18T04:56:39.868Z,5.33
2019-01-18T04:59:08.980Z,5.53
2019-01-18T05:01:38.000Z,5.50
2019-01-18T05:04:07.021Z,5.27
2019-01-18T05:06:37.466Z,5.07
2019-01-18T05:09:08.007Z,6.13
2019-01-18T05:11:37.344Z,6.30
2019-01-18T05:14:06.674Z,6.97
2019-01-18T05:16:35.908Z,6.03
2019-01-18T05:19:05.572Z,6.20
2019-01-18T05:21:34.595Z,6.07
2019-01-18T05:24:03.714Z,6.20
2019-01-18T05:26:33.120Z,7.20
2019-01-18T05:29:02.747Z,6.50
2019-01-18T05:31:31.911Z,5.47
2019-01-18T05:34:01.321Z,6.40
2019-01-18T05:36:30.544Z,5.80
2019-01-18T05:38:59.647Z,6.50
2019-01-18T05:41:30.300Z,7.07
2019-01-18T05:44:00.311Z,6.80
2019-01-18T05:46:29.344Z,6.50
2019-01-18T05:48:58.502Z,7.13
2019-01-18T05:51:29.794Z,6.87
2019-01-18T05:53:59.576Z,7.17
2019-01-18T05:56:29.666Z,7.13
2019-01-18T05:58:59.002Z,7.23
2019-01-18T06:01:28.500Z,7.27
2019-01-18T06:03:58.385Z,7.73
2019-01-18T06:06:30.498Z,6.77
2019-01-18T06:09:01.383Z,7.00
2019-01-18T06:11:31.576Z,6.90
2019-01-18T06:14:01.860Z,8.43
2019-01-18T06:16:32.319Z,7.17
2019-01-18T06:19:06.972Z,8.17
2019-01-18T06:21:36.654Z,7.10
2019-01-18T06:24:09.566Z,7.00
2019-01-18T06:26:38.616Z,6.70
2019-01-18T06:29:09.233Z,6.60
2019-01-18T06:31:38.424Z,7.73
2019-01-18T06:34:07.401Z,7.17
2019-01-18T06:36:36.741Z,7.40
2019-01-18T06:39:08.905Z,7.53
2019-01-18T06:41:48.402Z,7.10
2019-01-18T06:44:17.433Z,7.83
2019-01-18T06:46:47.701Z,6.90
2019-01-18T06:49:18.331Z,7.10
2019-01-18T06:51:47.685Z,9.53
2019-01-18T06:54:16.782Z,8.70
2019-01-18T06:56:47.322Z,8.87
2019-01-18T06:59:16.307Z,8.40
2019-01-18T07:01:45.753Z,7.70
2019-01-18T07:04:14.769Z,7.53
2019-01-18T07:06:44.984Z,7.40
2019-01-18T07:09:14.358Z,8.13
2019-01-18T07:11:43.428Z,7.50
2019-01-18T07:14:12.863Z,6.57
2019-01-18T07:16:42.263Z,6.13
2019-01-18T07:19:11.668Z,6.17
2019-01-18T07:21:41.007Z,6.17
2019-01-18T07:24:10.510Z,6.43
2019-01-18T07:26:39.539Z,6.33
2019-01-18T07:29:08.585Z,6.47
2019-01-18T07:31:37.590Z,6.70
2019-01-18T07:34:06.693Z,6.40
2019-01-18T07:36:35.746Z,6.03
2019-01-18T07:39:07.476Z,6.87
2019-01-18T07:41:36.626Z,8.13
2019-01-18T07:44:05.730Z,7.57
2019-01-18T07:46:34.808Z,7.27
2019-01-18T07:49:03.799Z,6.57
2019-01-18T07:51:33.197Z,7.00
2019-01-18T07:54:02.785Z,7.20
2019-01-18T07:56:31.809Z,6.10
2019-01-18T07:59:00.825Z,6.20
2019-01-18T08:01:31.528Z,7.20
2019-01-18T08:04:00.827Z,7.13
2019-01-18T08:06:29.979Z,6.47
2019-01-18T08:08:58.996Z,6.27
2019-01-18T08:11:28.037Z,7.10
2019-01-18T08:13:57.113Z,8.13
2019-01-18T08:16:26.334Z,7.97
2019-01-18T08:18:55.379Z,7.60
2019-01-18T08:21:24.688Z,7.80
2019-01-18T08:23:54.141Z,8.90
2019-01-18T08:26:23.183Z,8.63
2019-01-18T08:28:52.233Z,9.00
2019-01-18T08:31:21.293Z,8.87
2019-01-18T08:33:50.607Z,9.40
2019-01-18T08:36:19.757Z,9.17
2019-01-18T08:38:48.801Z,9.07
2019-01-18T08:41:17.818Z,9.53
2019-01-18T08:43:47.199Z,8.97
2019-01-18T08:46:17.296Z,8.73
2019-01-18T08:48:47.534Z,9.13
2019-01-18T08:51:16.549Z,8.53
2019-01-18T08:53:46.010Z,9.03
2019-01-18T08:56:16.676Z,8.30
2019-01-18T08:58:46.279Z,8.80
2019-01-18T09:01:15.284Z,7.93
2019-01-18T09:03:44.286Z,8.80
2019-01-18T09:06:13.667Z,7.80
2019-01-18T09:08:42.698Z,8.73
2019-01-18T09:11:12.458Z,7.73
2019-01-18T09:13:41.460Z,7.17
2019-01-18T09:16:10.879Z,7.20
2019-01-18T09:18:40.243Z,7.10
2019-01-18T09:21:09.329Z,6.90
2019-01-18T09:23:38.347Z,6.80
2019-01-18T09:26:08.271Z,7.10
2019-01-18T09:28:37.341Z,6.87
2019-01-18T09:31:06.797Z,6.93
2019-01-18T09:33:35.923Z,7.60
2019-01-18T09:36:05.274Z,6.13
2019-01-18T09:38:34.579Z,6.80
2019-01-18T09:41:03.613Z,7.83
2019-01-18T09:43:32.679Z,7.07
2019-01-18T09:46:01.903Z,6.97
2019-01-18T09:48:31.097Z,7.23
2019-01-18T09:51:00.185Z,6.50
2019-01-18T09:53:29.277Z,6.30
2019-01-18T09:55:58.305Z,7.10
2019-01-18T09:58:27.338Z,7.07
2019-01-18T10:00:56.953Z,7.70
2019-01-18T10:03:26.013Z,7.80
2019-01-18T10:05:55.058Z,7.23
2019-01-18T10:08:24.051Z,7.67
2019-01-18T10:10:53.221Z,7.47
2019-01-18T10:13:22.292Z,7.80
2019-01-18T10:15:51.314Z,8.10
2019-01-18T10:18:20.312Z,7.20
2019-01-18T10:20:49.663Z,7.77
2019-01-18T10:23:18.732Z,7.70
2019-01-18T10:25:48.630Z,8.27
2019-01-18T10:28:17.663Z,8.83
2019-01-18T10:30:46.973Z,8.20
2019-01-18T10:33:15.994Z,7.40
2019-01-18T10:35:45.784Z,8.00
2019-01-18T10:38:14.895Z,9.03
2019-01-18T10:40:43.947Z,8.90
2019-01-18T10:43:12.913Z,8.67
2019-01-18T10:45:42.319Z,9.80
2019-01-18T10:48:11.370Z,9.03
2019-01-18T10:50:40.397Z,9.60
2019-01-18T10:53:09.406Z,8.97
2019-01-18T10:55:38.521Z,8.87
2019-01-18T10:58:07.554Z,8.90
2019-01-18T11:00:37.277Z,8.73
2019-01-18T11:03:07.005Z,8.70
2019-01-18T11:05:36.325Z,9.47
2019-01-18T11:08:05.817Z,8.67
2019-01-18T11:10:35.041Z,9.13
2019-01-18T11:13:04.617Z,8.57
2019-01-18T11:15:36.052Z,9.07
2019-01-18T11:18:05.926Z,9.27
2019-01-18T11:20:51.094Z,9.37
2019-01-18T11:23:20.605Z,9.47
2019-01-18T11:25:52.209Z,8.53
2019-01-18T11:28:21.339Z,9.43
2019-01-18T11:30:50.496Z,9.43
2019-01-18T11:33:19.531Z,10.13
2019-01-18T11:35:50.215Z,10.23
2019-01-18T11:38:19.416Z,9.10
2019-01-18T11:40:48.864Z,10.40
2019-01-18T11:43:17.880Z,10.00
2019-01-18T11:45:47.242Z,11.00
2019-01-18T11:48:17.420Z,10.70
2019-01-18T11:50:46.679Z,10.30
2019-01-18T11:53:15.676Z,11.03
2019-01-18T11:55:45.090Z,10.27
2019-01-18T11:58:14.506Z,11.40
2019-01-18T12:00:44.637Z,11.13
2019-01-18T12:03:13.679Z,10.77
2019-01-18T12:05:42.711Z,11.13
2019-01-18T12:08:12.099Z,10.80
2019-01-18T12:10:42.218Z,10.87
2019-01-18T12:13:11.257Z,11.07
2019-01-18T12:15:40.607Z,10.87
2019-01-18T12:18:10.039Z,9.73
2019-01-18T12:20:39.031Z,11.17
2019-01-18T12:23:08.361Z,10.07
2019-01-18T12:25:37.405Z,9.80
2019-01-18T12:28:07.171Z,10.20
2019-01-18T12:30:37.086Z,9.63
2019-01-18T12:33:06.281Z,9.73
2019-01-18T12:35:35.712Z,9.53
2019-01-18T12:38:05.536Z,9.90
2019-01-18T12:40:34.801Z,10.03
2019-01-18T12:43:04.213Z,10.73
2019-01-18T12:45:33.338Z,11.70
2019-01-18T12:48:02.382Z,10.57
2019-01-18T12:50:36.895Z,9.07
2019-01-18T12:53:06.435Z,11.00
2019-01-18T12:55:37.160Z,10.97
2019-01-18T12:58:06.951Z,10.57
2019-01-18T13:00:36.075Z,10.40
2019-01-18T13:03:05.945Z,10.43
2019-01-18T13:05:38.571Z,10.47
2019-01-18T13:08:07.597Z,9.73
2019-01-18T13:10:37.006Z,11.37
2019-01-18T13:13:07.607Z,10.90
2019-01-18T13:15:44.403Z,11.50
2019-01-18T13:18:13.446Z,12.60
2019-01-18T13:20:42.484Z,11.37
2019-01-18T13:23:11.649Z,11.67
2019-01-18T13:25:40.667Z,11.47
2019-01-18T13:28:09.692Z,10.53
2019-01-18T13:30:39.105Z,11.80
2019-01-18T13:33:08.183Z,12.77
2019-01-18T13:35:37.531Z,14.53
2019-01-18T13:38:06.539Z,14.27
2019-01-18T13:40:35.589Z,15.23
2019-01-18T13:43:05.006Z,21.63
2019-01-18T13:45:34.021Z,17.87
2019-01-18T13:48:03.429Z,20.83
2019-01-18T13:50:32.860Z,19.40
2019-01-18T13:53:03.852Z,19.97
2019-01-18T13:55:32.872Z,18.83
2019-01-18T13:58:02.320Z,20.00
2019-01-18T14:00:31.343Z,19.53
2019-01-18T14:03:04.556Z,20.67
2019-01-18T14:05:33.918Z,19.73
2019-01-18T14:08:02.971Z,19.27
2019-01-18T14:10:32.027Z,19.90
2019-01-18T14:13:01.568Z,19.17
2019-01-18T14:15:30.881Z,18.67
2019-01-18T14:17:59.894Z,18.40
2019-01-18T14:20:29.280Z,19.50
2019-01-18T14:22:59.183Z,19.70
2019-01-18T14:25:28.756Z,19.47
2019-01-18T14:27:57.783Z,19.23
2019-01-18T14:30:27.355Z,19.17
2019-01-18T14:32:56.426Z,18.60
2019-01-18T14:35:26.927Z,19.37
2019-01-18T14:37:56.000Z,19.97
2019-01-18T14:40:25.358Z,18.73
2019-01-18T14:42:54.830Z,18.60
2019-01-18T14:45:29.998Z,18.93
2019-01-18T14:47:59.025Z,18.30
2019-01-18T14:50:28.425Z,18.17
2019-01-18T14:52:57.437Z,18.57
2019-01-18T14:55:26.528Z,18.70
2019-01-18T14:57:55.827Z,18.67
2019-01-18T15:00:31.195Z,18.00
2019-01-18T15:03:02.382Z,18.20
2019-01-18T15:05:30.944Z,17.27
2019-01-18T15:07:59.976Z,18.40
2019-01-18T15:10:29.328Z,17.07
2019-01-18T15:13:01.100Z,17.23
2019-01-18T15:15:30.219Z,18.50
2019-01-18T15:17:59.207Z,17.87
2019-01-18T15:20:29.821Z,17.40
2019-01-18T15:22:59.338Z,16.47
2019-01-18T15:25:28.347Z,17.73
2019-01-18T15:27:57.821Z,17.50
2019-01-18T15:30:28.710Z,16.47
2019-01-18T15:32:57.760Z,16.27
2019-01-18T15:35:37.670Z,16.43
2019-01-18T15:38:08.734Z,17.07
2019-01-18T15:40:41.390Z,17.17
2019-01-18T15:43:12.031Z,15.30
2019-01-18T15:45:41.114Z,16.07
2019-01-18T15:48:10.142Z,16.60
2019-01-18T15:50:39.640Z,17.70
2019-01-18T15:53:08.940Z,17.00
2019-01-18T15:55:38.168Z,17.27
2019-01-18T15:58:08.563Z,18.07
2019-01-18T16:00:40.113Z,18.57
2019-01-18T16:03:15.654Z,19.63
2019-01-18T16:05:40.464Z,18.57
2019-01-18T16:08:31.057Z,17.80
2019-01-18T16:11:00.087Z,16.17
2019-01-18T16:13:29.339Z,15.03
2019-01-18T16:16:20.478Z,15.17
2019-01-18T16:18:49.777Z,14.57
2019-01-18T16:21:18.813Z,14.40
2019-01-18T16:23:47.863Z,15.17
2019-01-18T16:26:16.925Z,14.20
2019-01-18T16:28:46.299Z,13.37
2019-01-18T16:31:16.045Z,14.83
2019-01-18T16:33:45.068Z,14.60
2019-01-18T16:36:14.216Z,15.03
2019-01-18T16:38:43.872Z,14.70
2019-01-18T16:41:12.879Z,14.50
2019-01-18T16:43:44.724Z,15.80
2019-01-18T16:46:13.856Z,14.90
2019-01-18T16:48:42.985Z,16.10
2019-01-18T16:51:12.046Z,16.60
2019-01-18T16:53:41.070Z,15.53
2019-01-18T16:56:10.528Z,14.13
2019-01-18T16:58:39.588Z,14.80
2019-01-18T17:01:09.897Z,14.33
2019-01-18T17:03:38.937Z,14.40
2019-01-18T17:06:08.099Z,14.60
2019-01-18T17:08:37.253Z,14.87
2019-01-18T17:11:06.544Z,16.83
2019-01-18T17:13:38.720Z,17.53
2019-01-18T17:16:08.308Z,19.17
2019-01-18T17:18:37.797Z,19.90
2019-01-18T17:21:06.834Z,20.67
2019-01-18T17:23:36.263Z,20.13
2019-01-18T17:26:07.150Z,18.90
2019-01-18T17:28:36.228Z,20.40
2019-01-18T17:31:05.569Z,19.63
2019-01-18T17:33:37.606Z,19.80
2019-01-18T17:36:37.210Z,19.60
2019-01-18T17:39:53.922Z,19.43
2019-01-18T17:43:07.040Z,19.20
2019-01-18T17:46:08.188Z,20.03
2019-01-18T17:48:48.678Z,20.13
2019-01-18T17:52:13.965Z,20.20
2019-01-18T17:55:23.085Z,19.43
2019-01-18T17:58:30.424Z,18.53
2019-01-18T18:01:23.788Z,19.33
2019-01-18T18:04:40.171Z,17.73
2019-01-18T18:07:53.079Z,16.60
2019-01-18T18:11:04.233Z,17.03
2019-01-18T18:14:19.717Z,16.03
2019-01-18T18:17:16.000Z,17.13
2019-01-18T18:20:21.968Z,18.30
2019-01-18T18:23:14.570Z,18.17
2019-01-18T18:26:19.613Z,19.43
2019-01-18T18:29:20.184Z,18.50
2019-01-18T18:32:29.184Z,19.17
2019-01-18T18:35:31.818Z,17.73
2019-01-18T18:38:48.428Z,19.17
2019-01-18T18:41:48.535Z,18.47
2019-01-18T18:44:47.773Z,17.07
2019-01-18T18:48:22.407Z,17.97
2019-01-18T18:51:15.193Z,18.00
2019-01-18T18:54:24.344Z,17.20
2019-01-18T18:57:20.414Z,17.80
2019-01-18T19:00:17.855Z,18.20
2019-01-18T19:03:08.931Z,18.03
2019-01-18T19:06:29.949Z,17.33
2019-01-18T19:09:29.164Z,17.67
2019-01-18T19:12:44.956Z,17.20
2019-01-18T19:15:55.354Z,17.03
2019-01-18T19:19:02.237Z,17.00
2019-01-18T19:22:23.505Z,16.80
2019-01-18T19:25:22.205Z,16.50
2019-01-18T19:28:28.672Z,18.17
2019-01-18T19:31:13.679Z,18.27
2019-01-18T19:34:16.326Z,18.53
2019-01-18T19:37:41.432Z,16.57
2019-01-18T19:41:06.979Z,16.60
2019-01-18T19:44:19.847Z,17.47
2019-01-18T19:47:26.114Z,16.33
2019-01-18T19:50:44.813Z,15.93
2019-01-18T19:53:48.818Z,16.23
2019-01-18T19:56:54.704Z,16.03
2019-01-18T20:00:13.010Z,15.90
2019-01-18T20:03:26.152Z,15.43
2019-01-18T20:06:26.254Z,15.63
2019-01-18T20:09:28.281Z,14.37
2019-01-18T20:12:43.117Z,15.77
2019-01-18T20:15:35.723Z,15.07
2019-01-18T20:18:36.208Z,16.00
2019-01-18T20:21:27.756Z,16.73
2019-01-18T20:24:35.344Z,17.43
2019-01-18T20:27:32.301Z,16.20
2019-01-18T20:30:39.122Z,17.27
2019-01-18T20:34:18.324Z,16.90
2019-01-18T20:37:21.822Z,16.47
2019-01-18T20:40:37.414Z,16.13
2019-01-18T20:43:47.040Z,15.30
2019-01-18T20:46:50.860Z,17.30
2019-01-18T20:50:12.996Z,17.60
2019-01-18T20:52:57.803Z,18.37
2019-01-18T20:56:06.438Z,17.63
2019-01-18T20:58:50.345Z,18.33
2019-01-18T21:01:52.482Z,16.50
2019-01-18T21:05:04.842Z,16.37
2019-01-18T21:07:55.948Z,17.00
2019-01-18T21:10:50.563Z,17.40
2019-01-18T21:13:49.102Z,17.27
2019-01-18T21:17:05.761Z,16.03
2019-01-18T21:20:17.533Z,16.60
2019-01-18T21:23:12.276Z,15.97
2019-01-18T21:26:10.370Z,16.20
2019-01-18T21:29:25.450Z,14.70
2019-01-18T21:32:43.222Z,16.97
2019-01-18T21:35:28.586Z,16.40
2019-01-18T21:38:50.458Z,15.83
2019-01-18T21:41:32.334Z,16.17
2019-01-18T21:44:38.777Z,17.23
2019-01-18T21:47:43.002Z,17.37
2019-01-18T21:50:51.442Z,16.43
2019-01-18T21:53:51.973Z,16.43
2019-01-18T21:56:51.125Z,16.20
2019-01-18T22:00:05.528Z,17.37
2019-01-18T22:03:01.031Z,16.67
2019-01-18T22:05:50.667Z,17.03
2019-01-18T22:08:42.639Z,16.17
2019-01-18T22:11:38.877Z,16.17
2019-01-18T22:14:33.829Z,16.07
2019-01-18T22:17:38.395Z,16.20
2019-01-18T22:20:39.464Z,17.57
2019-01-18T22:23:41.844Z,16.60
2019-01-18T22:26:52.348Z,16.20
2019-01-18T22:29:44.974Z,15.87
2019-01-18T22:33:09.460Z,17.07
2019-01-18T22:36:35.854Z,16.37
2019-01-18T22:39:48.960Z,16.23
2019-01-18T22:43:04.865Z,15.97
2019-01-18T22:45:51.324Z,15.93
2019-01-18T22:48:50.814Z,17.83
2019-01-18T22:51:47.086Z,16.33
2019-01-18T22:54:34.993Z,16.67
2019-01-18T22:57:20.866Z,16.67
2019-01-18T23:00:39.176Z,16.13
2019-01-18T23:03:34.546Z,17.07
2019-01-18T23:06:46.450Z,17.70
2019-01-18T23:09:53.439Z,16.57
2019-01-18T23:12:40.572Z,16.50
2019-01-18T23:15:41.793Z,15.93
2019-01-18T23:19:00.756Z,16.40
2019-01-18T23:22:03.973Z,16.23
2019-01-18T23:24:48.213Z,17.23
2019-01-18T23:27:44.451Z,17.83
2019-01-18T23:30:33.243Z,16.07
2019-01-18T23:33:43.322Z,16.27
2019-01-18T23:36:44.242Z,16.30
2019-01-18T23:39:30.453Z,17.50
2019-01-18T23:42:14.119Z,16.33
2019-01-18T23:45:20.439Z,17.87
2019-01-18T23:48:43.517Z,17.03
2019-01-18T23:51:47.163Z,16.20
2019-01-18T23:54:50.687Z,16.70
2019-01-18T23:57:54.550Z,16.97
